Airfield :
LOGIN :

Register | Disclaimer

   EN    FR    IT 

 










Legend :    VFR   Marginal VFR   IFR   Intensive IFR   Very Intensive IFR
Visi :
Ceiling :
>= 8 km
>= 3000ft
5 to 8 km
1000 to 3000 ft
1500m to 5 km
500 to 1000 ft
800 to 1500m
200 to 500 ft
< 800m
< 200 ft
Symbols :   Thunderstorms  Fog  Heavy snow  Heavy precipitations  Wind > 20 kt
SIGMETs :     Misc.  Thunderstorms  Icing  Turbulence  Mountain Waves  Volcanic Ashes







- Airport Elevation : 218 ft
- IATA code : LBG
- Download approach charts


LFPB - Paris / Le Bourget

CURRENT METAR :
  • 231930Z AUTO 33011KT 300V360 9999 BKN021 OVC054 12/08 Q1025 NOSIG

EXPIRED METARs :
  • 231900Z AUTO 33011KT 290V360 9999 FEW020 OVC048 12/08 Q1024 TEMPO BKN014
  • 231830Z AUTO 33012KT 9999 FEW019 BKN033 BKN045 12/09 Q1023 TEMPO BKN014
  • 231800Z AUTO 32013KT 280V350 9999 BKN024 BKN032 OVC038 13/08 Q1022 TEMPO BKN014
  • 231730Z AUTO 33010KT 9999 FEW029 SCT035 BKN058 13/08 Q1021 TEMPO BKN014
  • 231700Z AUTO 34012KT 310V010 9999 SCT038 SCT046 BKN056 13/08 Q1020 TEMPO 3000 -RA BKN008 BECMG 33015G25KT

TAF TAF LFPB
Valid from the 23 at 18:00 until the 24 at 18:00 UTC


231700Z 2318/2418 34015G30KT 9999 SCT015 BKN040 TX16/2415Z TN08/2406Z
PROB30
TEMPO 2318/2320 BKN014
BECMG 2318/2320 34010KT
ATIS : +33 1 48 62 43 92
No reported NOTAMs for that airfield.



MET'MAP, your aeronautical weather chart ! - Copyright ORBIFLY December 2007 - Disclaimer

ORBIFLY MET'MAP TEAM :

Programming & Development : Alexandra Zaïnal
Concept & Development : Baudouin d'Aumeries
Co-Development & Prog : Marc-Olivier Méhu
Technical & hardware support : Manuel Goepfert

Contact : metmap@orbifly.com




SOURCES & CREDITS :

   NOAA